sensor_id;sensor_type;location;lat;lon;timestamp;temperature;humidity
23291;DHT22;11814;44.686;10.842;2023-08-12T00:00:19;24.20;81.00
23291;DHT22;11814;44.686;10.842;2023-08-12T00:02:45;24.20;81.10
23291;DHT22;11814;44.686;10.842;2023-08-12T00:05:11;24.10;81.00
23291;DHT22;11814;44.686;10.842;2023-08-12T00:07:38;24.10;81.10
23291;DHT22;11814;44.686;10.842;2023-08-12T00:10:07;24.00;81.20
23291;DHT22;11814;44.686;10.842;2023-08-12T00:12:34;24.00;81.50
23291;DHT22;11814;44.686;10.842;2023-08-12T00:15:00;24.00;81.70
23291;DHT22;11814;44.686;10.842;2023-08-12T00:17:26;24.00;81.90
23291;DHT22;11814;44.686;10.842;2023-08-12T00:19:52;24.00;82.00
23291;DHT22;11814;44.686;10.842;2023-08-12T00:22:18;24.10;82.10
23291;DHT22;11814;44.686;10.842;2023-08-12T00:24:43;24.00;82.00
23291;DHT22;11814;44.686;10.842;2023-08-12T00:27:10;24.00;82.10
23291;DHT22;11814;44.686;10.842;2023-08-12T00:29:36;23.90;82.30
23291;DHT22;11814;44.686;10.842;2023-08-12T00:32:02;23.90;82.50
23291;DHT22;11814;44.686;10.842;2023-08-12T00:34:28;23.80;82.60
23291;DHT22;11814;44.686;10.842;2023-08-12T00:36:54;23.70;83.00
23291;DHT22;11814;44.686;10.842;2023-08-12T00:39:19;23.60;83.20
23291;DHT22;11814;44.686;10.842;2023-08-12T00:41:45;23.60;83.60
23291;DHT22;11814;44.686;10.842;2023-08-12T00:44:11;23.50;83.90
23291;DHT22;11814;44.686;10.842;2023-08-12T00:46:38;23.50;84.20
23291;DHT22;11814;44.686;10.842;2023-08-12T00:49:04;23.50;84.50
23291;DHT22;11814;44.686;10.842;2023-08-12T00:51:30;23.40;85.60
23291;DHT22;11814;44.686;10.842;2023-08-12T00:53:58;23.30;85.20
23291;DHT22;11814;44.686;10.842;2023-08-12T00:56:25;23.30;85.50
23291;DHT22;11814;44.686;10.842;2023-08-12T00:58:52;23.40;85.70
23291;DHT22;11814;44.686;10.842;2023-08-12T01:01:19;23.30;85.80
23291;DHT22;11814;44.686;10.842;2023-08-12T01:03:45;23.40;85.90
23291;DHT22;11814;44.686;10.842;2023-08-12T01:06:12;23.40;85.90
23291;DHT22;11814;44.686;10.842;2023-08-12T01:08:38;23.40;86.00
23291;DHT22;11814;44.686;10.842;2023-08-12T01:11:28;23.40;86.20
23291;DHT22;11814;44.686;10.842;2023-08-12T01:17:03;23.30;86.50
23291;DHT22;11814;44.686;10.842;2023-08-12T01:19:35;23.30;86.80
23291;DHT22;11814;44.686;10.842;2023-08-12T01:22:03;23.20;87.10
23291;DHT22;11814;44.686;10.842;2023-08-12T01:24:35;23.20;87.50
23291;DHT22;11814;44.686;10.842;2023-08-12T01:27:02;23.20;87.80
23291;DHT22;11814;44.686;10.842;2023-08-12T01:29:28;23.20;87.80
23291;DHT22;11814;44.686;10.842;2023-08-12T01:37:43;23.10;88.50
23291;DHT22;11814;44.686;10.842;2023-08-12T01:40:09;23.00;88.80
23291;DHT22;11814;44.686;10.842;2023-08-12T01:42:36;23.00;89.20
23291;DHT22;11814;44.686;10.842;2023-08-12T01:45:02;23.00;89.10
23291;DHT22;11814;44.686;10.842;2023-08-12T01:47:29;23.00;89.20
23291;DHT22;11814;44.686;10.842;2023-08-12T01:49:55;23.00;89.60
23291;DHT22;11814;44.686;10.842;2023-08-12T01:52:21;22.90;89.30
23291;DHT22;11814;44.686;10.842;2023-08-12T01:54:46;22.90;89.50
23291;DHT22;11814;44.686;10.842;2023-08-12T01:57:12;22.90;89.90
23291;DHT22;11814;44.686;10.842;2023-08-12T01:59:38;22.90;90.00
23291;DHT22;11814;44.686;10.842;2023-08-12T02:02:04;22.80;90.10
23291;DHT22;11814;44.686;10.842;2023-08-12T02:04:30;22.90;90.20
23291;DHT22;11814;44.686;10.842;2023-08-12T02:06:56;22.80;90.30
23291;DHT22;11814;44.686;10.842;2023-08-12T02:09:22;22.80;90.40
23291;DHT22;11814;44.686;10.842;2023-08-12T02:11:48;22.80;90.50
23291;DHT22;11814;44.686;10.842;2023-08-12T02:14:14;22.80;90.70
23291;DHT22;11814;44.686;10.842;2023-08-12T02:16:40;22.70;90.60
23291;DHT22;11814;44.686;10.842;2023-08-12T02:19:05;22.60;90.70
23291;DHT22;11814;44.686;10.842;2023-08-12T02:21:31;22.60;90.80
23291;DHT22;11814;44.686;10.842;2023-08-12T02:23:57;22.50;91.00
23291;DHT22;11814;44.686;10.842;2023-08-12T02:26:23;22.50;91.20
23291;DHT22;11814;44.686;10.842;2023-08-12T02:28:48;22.40;91.40
23291;DHT22;11814;44.686;10.842;2023-08-12T02:31:15;22.40;91.60
23291;DHT22;11814;44.686;10.842;2023-08-12T02:33:42;22.40;91.70
23291;DHT22;11814;44.686;10.842;2023-08-12T02:36:08;22.30;91.90
23291;DHT22;11814;44.686;10.842;2023-08-12T02:38:34;22.20;92.20
23291;DHT22;11814;44.686;10.842;2023-08-12T02:41:00;22.20;92.70
23291;DHT22;11814;44.686;10.842;2023-08-12T02:43:25;22.20;93.10
23291;DHT22;11814;44.686;10.842;2023-08-12T02:45:51;22.20;93.40
23291;DHT22;11814;44.686;10.842;2023-08-12T02:48:17;22.20;93.60
23291;DHT22;11814;44.686;10.842;2023-08-12T02:50:43;22.10;93.90
23291;DHT22;11814;44.686;10.842;2023-08-12T02:53:09;22.10;94.50
23291;DHT22;11814;44.686;10.842;2023-08-12T02:55:34;22.00;95.00
23291;DHT22;11814;44.686;10.842;2023-08-12T02:58:01;22.00;96.00
23291;DHT22;11814;44.686;10.842;2023-08-12T03:00:27;21.90;96.40
23291;DHT22;11814;44.686;10.842;2023-08-12T03:02:53;21.90;97.10
23291;DHT22;11814;44.686;10.842;2023-08-12T03:05:22;21.90;97.60
23291;DHT22;11814;44.686;10.842;2023-08-12T03:07:47;21.90;98.20
23291;DHT22;11814;44.686;10.842;2023-08-12T03:10:13;21.90;98.70
23291;DHT22;11814;44.686;10.842;2023-08-12T03:12:39;21.90;99.20
23291;DHT22;11814;44.686;10.842;2023-08-12T03:15:09;21.80;99.60
23291;DHT22;11814;44.686;10.842;2023-08-12T03:17:35;21.80;99.90
23291;DHT22;11814;44.686;10.842;2023-08-12T03:20:01;21.70;99.90
23291;DHT22;11814;44.686;10.842;2023-08-12T03:22:30;21.80;99.90
23291;DHT22;11814;44.686;10.842;2023-08-12T03:24:55;21.80;99.90
23291;DHT22;11814;44.686;10.842;2023-08-12T03:27:21;21.80;99.90
23291;DHT22;11814;44.686;10.842;2023-08-12T03:29:47;21.80;99.90
23291;DHT22;11814;44.686;10.842;2023-08-12T03:32:13;21.80;99.90
23291;DHT22;11814;44.686;10.842;2023-08-12T03:34:39;21.80;99.90
23291;DHT22;11814;44.686;10.842;2023-08-12T03:37:04;21.80;99.90
23291;DHT22;11814;44.686;10.842;2023-08-12T03:39:30;21.80;99.90
23291;DHT22;11814;44.686;10.842;2023-08-12T03:41:56;21.80;99.90
23291;DHT22;11814;44.686;10.842;2023-08-12T03:44:22;21.80;99.90
23291;DHT22;11814;44.686;10.842;2023-08-12T03:46:48;21.80;99.90
23291;DHT22;11814;44.686;10.842;2023-08-12T03:49:13;21.70;99.90
23291;DHT22;11814;44.686;10.842;2023-08-12T03:51:39;21.70;99.90
23291;DHT22;11814;44.686;10.842;2023-08-12T03:54:05;21.80;99.90
23291;DHT22;11814;44.686;10.842;2023-08-12T03:56:31;21.70;99.90
23291;DHT22;11814;44.686;10.842;2023-08-12T03:58:57;21.70;99.90
23291;DHT22;11814;44.686;10.842;2023-08-12T04:01:22;21.70;99.90
23291;DHT22;11814;44.686;10.842;2023-08-12T04:03:48;21.70;99.90
23291;DHT22;11814;44.686;10.842;2023-08-12T04:06:14;21.70;99.90
23291;DHT22;11814;44.686;10.842;2023-08-12T04:08:39;21.70;99.90
23291;DHT22;11814;44.686;10.842;2023-08-12T04:11:05;21.70;99.90
23291;DHT22;11814;44.686;10.842;2023-08-12T04:13:31;21.80;99.90
23291;DHT22;11814;44.686;10.842;2023-08-12T04:15:56;21.80;99.90
23291;DHT22;11814;44.686;10.842;2023-08-12T04:18:22;21.70;99.90
23291;DHT22;11814;44.686;10.842;2023-08-12T04:20:52;21.70;99.90
23291;DHT22;11814;44.686;10.842;2023-08-12T04:23:19;21.60;99.90
23291;DHT22;11814;44.686;10.842;2023-08-12T04:25:48;21.60;99.90
23291;DHT22;11814;44.686;10.842;2023-08-12T04:28:15;21.50;99.90
23291;DHT22;11814;44.686;10.842;2023-08-12T04:30:45;21.40;99.90
23291;DHT22;11814;44.686;10.842;2023-08-12T04:33:12;21.40;99.90
23291;DHT22;11814;44.686;10.842;2023-08-12T04:35:39;21.40;99.90
23291;DHT22;11814;44.686;10.842;2023-08-12T04:38:04;21.40;99.90
23291;DHT22;11814;44.686;10.842;2023-08-12T04:40:30;21.40;99.90
23291;DHT22;11814;44.686;10.842;2023-08-12T04:42:58;21.40;99.90
23291;DHT22;11814;44.686;10.842;2023-08-12T04:45:24;21.40;99.90
23291;DHT22;11814;44.686;10.842;2023-08-12T04:47:49;21.40;99.90
23291;DHT22;11814;44.686;10.842;2023-08-12T04:50:15;21.40;99.90
23291;DHT22;11814;44.686;10.842;2023-08-12T04:52:41;21.40;99.90
23291;DHT22;11814;44.686;10.842;2023-08-12T04:55:07;21.40;99.90
23291;DHT22;11814;44.686;10.842;2023-08-12T04:57:33;21.50;99.90
23291;DHT22;11814;44.686;10.842;2023-08-12T04:59:58;21.50;99.90
23291;DHT22;11814;44.686;10.842;2023-08-12T05:02:24;21.50;99.90
23291;DHT22;11814;44.686;10.842;2023-08-12T05:04:51;21.50;99.90
23291;DHT22;11814;44.686;10.842;2023-08-12T05:07:16;21.60;99.90
23291;DHT22;11814;44.686;10.842;2023-08-12T05:09:42;21.60;99.90
23291;DHT22;11814;44.686;10.842;2023-08-12T05:12:11;21.60;99.90
23291;DHT22;11814;44.686;10.842;2023-08-12T05:14:38;21.70;99.90
23291;DHT22;11814;44.686;10.842;2023-08-12T05:17:05;21.70;99.90
23291;DHT22;11814;44.686;10.842;2023-08-12T05:19:31;21.80;99.90
23291;DHT22;11814;44.686;10.842;2023-08-12T05:21:57;21.80;99.90
23291;DHT22;11814;44.686;10.842;2023-08-12T05:24:22;21.80;99.90
23291;DHT22;11814;44.686;10.842;2023-08-12T05:26:48;21.90;99.90
23291;DHT22;11814;44.686;10.842;2023-08-12T05:29:13;21.90;99.90
23291;DHT22;11814;44.686;10.842;2023-08-12T05:31:39;22.00;99.90
23291;DHT22;11814;44.686;10.842;2023-08-12T05:34:05;22.00;99.90
23291;DHT22;11814;44.686;10.842;2023-08-12T05:36:31;22.20;99.90
23291;DHT22;11814;44.686;10.842;2023-08-12T05:38:56;22.30;99.90
23291;DHT22;11814;44.686;10.842;2023-08-12T05:41:22;22.50;99.90
23291;DHT22;11814;44.686;10.842;2023-08-12T05:43:48;22.60;99.90
23291;DHT22;11814;44.686;10.842;2023-08-12T05:46:14;22.70;99.90
23291;DHT22;11814;44.686;10.842;2023-08-12T05:48:40;22.80;99.90
23291;DHT22;11814;44.686;10.842;2023-08-12T05:51:05;23.00;99.90
23291;DHT22;11814;44.686;10.842;2023-08-12T05:53:31;23.20;99.90
23291;DHT22;11814;44.686;10.842;2023-08-12T05:55:58;23.40;99.90
23291;DHT22;11814;44.686;10.842;2023-08-12T05:58:24;23.70;99.90
23291;DHT22;11814;44.686;10.842;2023-08-12T06:00:49;24.40;99.90
23291;DHT22;11814;44.686;10.842;2023-08-12T06:03:15;25.20;99.90
23291;DHT22;11814;44.686;10.842;2023-08-12T06:05:41;25.80;97.70
23291;DHT22;11814;44.686;10.842;2023-08-12T06:08:08;25.90;95.20
23291;DHT22;11814;44.686;10.842;2023-08-12T06:10:34;25.90;94.40
23291;DHT22;11814;44.686;10.842;2023-08-12T06:13:00;25.80;93.80
23291;DHT22;11814;44.686;10.842;2023-08-12T06:15:26;25.60;93.60
23291;DHT22;11814;44.686;10.842;2023-08-12T06:17:52;25.50;93.80
23291;DHT22;11814;44.686;10.842;2023-08-12T06:20:17;25.50;93.90
23291;DHT22;11814;44.686;10.842;2023-08-12T06:22:43;25.70;93.60
23291;DHT22;11814;44.686;10.842;2023-08-12T06:25:08;25.80;92.90
23291;DHT22;11814;44.686;10.842;2023-08-12T06:27:34;25.90;92.60
23291;DHT22;11814;44.686;10.842;2023-08-12T06:30:00;26.00;92.50
23291;DHT22;11814;44.686;10.842;2023-08-12T06:32:25;26.10;92.10
23291;DHT22;11814;44.686;10.842;2023-08-12T06:34:51;26.20;92.20
23291;DHT22;11814;44.686;10.842;2023-08-12T06:37:16;26.80;91.80
23291;DHT22;11814;44.686;10.842;2023-08-12T06:39:42;27.40;90.60
23291;DHT22;11814;44.686;10.842;2023-08-12T06:42:08;28.20;87.20
23291;DHT22;11814;44.686;10.842;2023-08-12T06:44:33;28.80;84.10
23291;DHT22;11814;44.686;10.842;2023-08-12T06:46:59;29.30;82.70
23291;DHT22;11814;44.686;10.842;2023-08-12T06:49:25;30.20;79.20
23291;DHT22;11814;44.686;10.842;2023-08-12T06:51:50;30.80;75.20
23291;DHT22;11814;44.686;10.842;2023-08-12T06:54:16;30.70;73.20
23291;DHT22;11814;44.686;10.842;2023-08-12T06:56:41;30.30;72.80
23291;DHT22;11814;44.686;10.842;2023-08-12T06:59:07;29.80;73.40
23291;DHT22;11814;44.686;10.842;2023-08-12T07:01:33;29.20;74.80
23291;DHT22;11814;44.686;10.842;2023-08-12T07:03:58;28.80;76.20
23291;DHT22;11814;44.686;10.842;2023-08-12T07:06:24;28.40;77.60
23291;DHT22;11814;44.686;10.842;2023-08-12T07:08:50;28.10;78.70
23291;DHT22;11814;44.686;10.842;2023-08-12T07:11:15;27.80;79.90
23291;DHT22;11814;44.686;10.842;2023-08-12T07:13:41;27.60;80.70
23291;DHT22;11814;44.686;10.842;2023-08-12T07:16:08;27.40;81.30
23291;DHT22;11814;44.686;10.842;2023-08-12T07:18:33;27.20;82.00
23291;DHT22;11814;44.686;10.842;2023-08-12T07:20:59;27.10;83.00
23291;DHT22;11814;44.686;10.842;2023-08-12T07:23:25;27.20;83.80
23291;DHT22;11814;44.686;10.842;2023-08-12T07:25:51;27.40;83.50
23291;DHT22;11814;44.686;10.842;2023-08-12T07:28:17;27.70;83.30
23291;DHT22;11814;44.686;10.842;2023-08-12T07:30:42;28.00;83.00
23291;DHT22;11814;44.686;10.842;2023-08-12T07:33:08;28.00;81.80
23291;DHT22;11814;44.686;10.842;2023-08-12T07:35:34;27.90;81.40
23291;DHT22;11814;44.686;10.842;2023-08-12T07:38:00;27.80;81.00
23291;DHT22;11814;44.686;10.842;2023-08-12T07:40:26;27.60;81.70
23291;DHT22;11814;44.686;10.842;2023-08-12T07:42:51;27.50;82.10
23291;DHT22;11814;44.686;10.842;2023-08-12T07:45:17;27.50;82.90
23291;DHT22;11814;44.686;10.842;2023-08-12T07:47:43;27.50;82.80
23291;DHT22;11814;44.686;10.842;2023-08-12T07:50:08;27.50;81.90
23291;DHT22;11814;44.686;10.842;2023-08-12T07:52:35;27.60;82.60
23291;DHT22;11814;44.686;10.842;2023-08-12T07:55:01;27.60;81.90
23291;DHT22;11814;44.686;10.842;2023-08-12T07:57:26;27.60;81.80
23291;DHT22;11814;44.686;10.842;2023-08-12T07:59:52;27.60;81.60
23291;DHT22;11814;44.686;10.842;2023-08-12T08:02:18;27.60;81.70
23291;DHT22;11814;44.686;10.842;2023-08-12T08:04:44;27.60;81.80
23291;DHT22;11814;44.686;10.842;2023-08-12T08:07:10;27.60;81.90
23291;DHT22;11814;44.686;10.842;2023-08-12T08:09:36;27.70;81.60
23291;DHT22;11814;44.686;10.842;2023-08-12T08:12:02;27.80;81.20
23291;DHT22;11814;44.686;10.842;2023-08-12T08:14:28;27.80;81.30
23291;DHT22;11814;44.686;10.842;2023-08-12T08:16:53;27.90;81.20
23291;DHT22;11814;44.686;10.842;2023-08-12T08:19:19;27.90;81.10
23291;DHT22;11814;44.686;10.842;2023-08-12T08:21:45;28.00;80.80
23291;DHT22;11814;44.686;10.842;2023-08-12T08:24:11;28.20;80.40
23291;DHT22;11814;44.686;10.842;2023-08-12T08:26:39;28.20;79.80
23291;DHT22;11814;44.686;10.842;2023-08-12T08:29:06;28.30;79.30
23291;DHT22;11814;44.686;10.842;2023-08-12T08:31:31;28.30;79.50
23291;DHT22;11814;44.686;10.842;2023-08-12T08:33:57;28.30;79.70
23291;DHT22;11814;44.686;10.842;2023-08-12T08:36:23;28.30;79.70
23291;DHT22;11814;44.686;10.842;2023-08-12T08:38:49;28.40;79.80
23291;DHT22;11814;44.686;10.842;2023-08-12T08:41:16;28.30;79.80
23291;DHT22;11814;44.686;10.842;2023-08-12T08:43:42;28.30;80.30
23291;DHT22;11814;44.686;10.842;2023-08-12T08:46:14;28.30;80.60
23291;DHT22;11814;44.686;10.842;2023-08-12T08:48:42;28.30;80.60
23291;DHT22;11814;44.686;10.842;2023-08-12T08:51:09;28.30;80.70
23291;DHT22;11814;44.686;10.842;2023-08-12T08:53:39;28.30;80.60
23291;DHT22;11814;44.686;10.842;2023-08-12T08:56:07;28.30;81.10
23291;DHT22;11814;44.686;10.842;2023-08-12T08:58:33;28.30;81.00
23291;DHT22;11814;44.686;10.842;2023-08-12T09:00:59;28.40;80.90
23291;DHT22;11814;44.686;10.842;2023-08-12T09:03:25;28.40;80.30
23291;DHT22;11814;44.686;10.842;2023-08-12T09:05:53;28.50;79.80
23291;DHT22;11814;44.686;10.842;2023-08-12T09:08:24;28.50;79.80
23291;DHT22;11814;44.686;10.842;2023-08-12T09:10:50;28.60;79.80
23291;DHT22;11814;44.686;10.842;2023-08-12T09:13:16;28.60;79.30
23291;DHT22;11814;44.686;10.842;2023-08-12T09:15:43;28.70;78.50
23291;DHT22;11814;44.686;10.842;2023-08-12T09:18:09;28.70;77.90
23291;DHT22;11814;44.686;10.842;2023-08-12T09:20:35;28.80;77.60
23291;DHT22;11814;44.686;10.842;2023-08-12T09:23:02;28.80;76.90
23291;DHT22;11814;44.686;10.842;2023-08-12T09:25:29;28.80;76.70
23291;DHT22;11814;44.686;10.842;2023-08-12T09:27:55;28.80;76.30
23291;DHT22;11814;44.686;10.842;2023-08-12T09:30:23;28.90;76.20
23291;DHT22;11814;44.686;10.842;2023-08-12T09:33:00;29.00;76.40
23291;DHT22;11814;44.686;10.842;2023-08-12T09:35:35;29.10;76.60
23291;DHT22;11814;44.686;10.842;2023-08-12T09:38:05;29.10;76.60
23291;DHT22;11814;44.686;10.842;2023-08-12T09:40:32;29.10;76.70
23291;DHT22;11814;44.686;10.842;2023-08-12T09:42:59;29.20;76.40
23291;DHT22;11814;44.686;10.842;2023-08-12T09:45:25;29.30;75.80
23291;DHT22;11814;44.686;10.842;2023-08-12T09:47:52;29.30;75.20
23291;DHT22;11814;44.686;10.842;2023-08-12T09:50:27;29.30;75.20
23291;DHT22;11814;44.686;10.842;2023-08-12T09:52:54;29.30;75.10
23291;DHT22;11814;44.686;10.842;2023-08-12T09:55:24;29.40;74.90
23291;DHT22;11814;44.686;10.842;2023-08-12T09:57:53;29.50;75.00
23291;DHT22;11814;44.686;10.842;2023-08-12T10:00:21;29.50;74.60
23291;DHT22;11814;44.686;10.842;2023-08-12T10:02:49;29.50;74.30
23291;DHT22;11814;44.686;10.842;2023-08-12T10:05:24;29.70;74.10
23291;DHT22;11814;44.686;10.842;2023-08-12T10:07:53;29.80;73.50
23291;DHT22;11814;44.686;10.842;2023-08-12T10:10:19;29.80;72.80
23291;DHT22;11814;44.686;10.842;2023-08-12T10:12:46;29.90;72.80
23291;DHT22;11814;44.686;10.842;2023-08-12T10:15:12;29.90;72.70
23291;DHT22;11814;44.686;10.842;2023-08-12T10:17:38;30.00;72.60
23291;DHT22;11814;44.686;10.842;2023-08-12T10:20:06;30.00;72.30
23291;DHT22;11814;44.686;10.842;2023-08-12T10:22:35;30.10;72.20
23291;DHT22;11814;44.686;10.842;2023-08-12T10:25:02;30.20;72.00
23291;DHT22;11814;44.686;10.842;2023-08-12T10:27:29;30.20;71.80
23291;DHT22;11814;44.686;10.842;2023-08-12T10:29:58;30.30;71.60
23291;DHT22;11814;44.686;10.842;2023-08-12T10:32:27;30.40;71.30
23291;DHT22;11814;44.686;10.842;2023-08-12T10:34:59;30.50;70.70
23291;DHT22;11814;44.686;10.842;2023-08-12T10:37:25;30.50;70.90
23291;DHT22;11814;44.686;10.842;2023-08-12T10:39:54;30.50;71.10
23291;DHT22;11814;44.686;10.842;2023-08-12T10:42:42;30.60;71.20
23291;DHT22;11814;44.686;10.842;2023-08-12T10:45:10;30.60;70.80
23291;DHT22;11814;44.686;10.842;2023-08-12T10:47:43;30.60;70.60
23291;DHT22;11814;44.686;10.842;2023-08-12T10:50:24;30.60;70.40
23291;DHT22;11814;44.686;10.842;2023-08-12T10:52:54;30.70;70.00
23291;DHT22;11814;44.686;10.842;2023-08-12T10:55:24;30.70;69.80
23291;DHT22;11814;44.686;10.842;2023-08-12T10:57:54;30.80;69.60
23291;DHT22;11814;44.686;10.842;2023-08-12T11:00:24;30.90;69.80
23291;DHT22;11814;44.686;10.842;2023-08-12T11:02:51;30.90;69.60
23291;DHT22;11814;44.686;10.842;2023-08-12T11:05:18;31.00;69.60
23291;DHT22;11814;44.686;10.842;2023-08-12T11:10:19;31.10;68.50
23291;DHT22;11814;44.686;10.842;2023-08-12T11:15:17;31.20;67.70
23291;DHT22;11814;44.686;10.842;2023-08-12T11:17:46;31.30;67.40
23291;DHT22;11814;44.686;10.842;2023-08-12T11:20:13;31.30;67.10
23291;DHT22;11814;44.686;10.842;2023-08-12T11:22:44;31.40;66.90
23291;DHT22;11814;44.686;10.842;2023-08-12T11:25:12;31.40;66.40
23291;DHT22;11814;44.686;10.842;2023-08-12T11:27:43;31.30;65.80
23291;DHT22;11814;44.686;10.842;2023-08-12T11:30:11;31.40;66.00
23291;DHT22;11814;44.686;10.842;2023-08-12T11:32:40;31.30;66.00
23291;DHT22;11814;44.686;10.842;2023-08-12T11:35:08;31.40;66.00
23291;DHT22;11814;44.686;10.842;2023-08-12T11:37:35;31.50;65.70
23291;DHT22;11814;44.686;10.842;2023-08-12T11:40:03;31.50;65.30
23291;DHT22;11814;44.686;10.842;2023-08-12T11:42:30;31.60;65.20
23291;DHT22;11814;44.686;10.842;2023-08-12T11:44:55;31.60;65.10
23291;DHT22;11814;44.686;10.842;2023-08-12T11:47:21;31.60;65.10
23291;DHT22;11814;44.686;10.842;2023-08-12T11:49:47;31.70;65.20
23291;DHT22;11814;44.686;10.842;2023-08-12T11:52:12;31.80;65.20
23291;DHT22;11814;44.686;10.842;2023-08-12T11:54:39;31.90;65.30
23291;DHT22;11814;44.686;10.842;2023-08-12T11:57:05;31.90;64.40
23291;DHT22;11814;44.686;10.842;2023-08-12T11:59:31;31.90;65.30
23291;DHT22;11814;44.686;10.842;2023-08-12T12:01:57;31.90;64.00
23291;DHT22;11814;44.686;10.842;2023-08-12T12:04:22;31.90;64.00
23291;DHT22;11814;44.686;10.842;2023-08-12T12:06:49;31.90;64.00
23291;DHT22;11814;44.686;10.842;2023-08-12T12:09:15;31.90;64.00
23291;DHT22;11814;44.686;10.842;2023-08-12T12:11:43;32.00;64.10
23291;DHT22;11814;44.686;10.842;2023-08-12T12:14:10;32.00;63.60
23291;DHT22;11814;44.686;10.842;2023-08-12T12:16:46;32.10;63.40
23291;DHT22;11814;44.686;10.842;2023-08-12T12:19:17;32.10;63.30
23291;DHT22;11814;44.686;10.842;2023-08-12T12:21:50;32.10;62.90
23291;DHT22;11814;44.686;10.842;2023-08-12T12:24:16;32.20;62.90
23291;DHT22;11814;44.686;10.842;2023-08-12T12:26:43;32.10;62.30
23291;DHT22;11814;44.686;10.842;2023-08-12T12:29:09;32.10;62.10
23291;DHT22;11814;44.686;10.842;2023-08-12T12:31:40;32.10;62.10
23291;DHT22;11814;44.686;10.842;2023-08-12T12:34:06;32.10;62.20
23291;DHT22;11814;44.686;10.842;2023-08-12T12:36:36;32.20;62.30
23291;DHT22;11814;44.686;10.842;2023-08-12T12:39:03;32.20;61.90
23291;DHT22;11814;44.686;10.842;2023-08-12T12:41:30;32.30;62.40
23291;DHT22;11814;44.686;10.842;2023-08-12T12:43:55;32.30;61.80
23291;DHT22;11814;44.686;10.842;2023-08-12T12:46:21;32.40;61.50
23291;DHT22;11814;44.686;10.842;2023-08-12T12:48:47;32.40;61.30
23291;DHT22;11814;44.686;10.842;2023-08-12T12:51:13;32.40;61.30
23291;DHT22;11814;44.686;10.842;2023-08-12T12:53:39;32.50;61.60
23291;DHT22;11814;44.686;10.842;2023-08-12T12:56:05;32.40;61.50
23291;DHT22;11814;44.686;10.842;2023-08-12T12:58:35;32.40;61.40
23291;DHT22;11814;44.686;10.842;2023-08-12T13:01:02;32.40;61.20
23291;DHT22;11814;44.686;10.842;2023-08-12T13:03:27;32.40;61.30
23291;DHT22;11814;44.686;10.842;2023-08-12T13:05:54;32.50;61.50
23291;DHT22;11814;44.686;10.842;2023-08-12T13:08:19;32.50;61.20
23291;DHT22;11814;44.686;10.842;2023-08-12T13:10:45;32.50;61.40
23291;DHT22;11814;44.686;10.842;2023-08-12T13:13:13;32.60;61.20
23291;DHT22;11814;44.686;10.842;2023-08-12T13:15:41;32.60;60.90
23291;DHT22;11814;44.686;10.842;2023-08-12T13:18:06;32.60;60.90
23291;DHT22;11814;44.686;10.842;2023-08-12T13:20:32;32.60;60.90
23291;DHT22;11814;44.686;10.842;2023-08-12T13:22:57;32.60;61.60
23291;DHT22;11814;44.686;10.842;2023-08-12T13:25:23;32.70;61.00
23291;DHT22;11814;44.686;10.842;2023-08-12T13:27:49;32.70;60.80
23291;DHT22;11814;44.686;10.842;2023-08-12T13:30:14;32.70;60.70
23291;DHT22;11814;44.686;10.842;2023-08-12T13:32:40;32.80;60.50
23291;DHT22;11814;44.686;10.842;2023-08-12T13:35:06;32.70;60.20
23291;DHT22;11814;44.686;10.842;2023-08-12T13:37:32;32.70;60.30
23291;DHT22;11814;44.686;10.842;2023-08-12T13:39:58;32.70;60.30
23291;DHT22;11814;44.686;10.842;2023-08-12T13:42:24;32.70;60.20
23291;DHT22;11814;44.686;10.842;2023-08-12T13:44:50;32.80;60.30
23291;DHT22;11814;44.686;10.842;2023-08-12T13:47:15;32.90;60.20
23291;DHT22;11814;44.686;10.842;2023-08-12T13:49:41;32.90;60.40
23291;DHT22;11814;44.686;10.842;2023-08-12T13:52:06;32.90;60.40
23291;DHT22;11814;44.686;10.842;2023-08-12T13:54:33;32.90;60.00
23291;DHT22;11814;44.686;10.842;2023-08-12T13:56:59;32.90;59.70
23291;DHT22;11814;44.686;10.842;2023-08-12T13:59:25;33.00;59.70
23291;DHT22;11814;44.686;10.842;2023-08-12T14:01:50;33.00;59.80
23291;DHT22;11814;44.686;10.842;2023-08-12T14:04:16;33.00;59.50
23291;DHT22;11814;44.686;10.842;2023-08-12T14:06:42;33.10;59.40
23291;DHT22;11814;44.686;10.842;2023-08-12T14:09:09;33.10;59.30
23291;DHT22;11814;44.686;10.842;2023-08-12T14:11:35;33.10;59.30
23291;DHT22;11814;44.686;10.842;2023-08-12T14:14:01;33.10;59.30
23291;DHT22;11814;44.686;10.842;2023-08-12T14:16:26;33.10;59.30
23291;DHT22;11814;44.686;10.842;2023-08-12T14:18:52;33.10;59.50
23291;DHT22;11814;44.686;10.842;2023-08-12T14:21:17;33.10;59.50
23291;DHT22;11814;44.686;10.842;2023-08-12T14:23:43;33.20;59.60
23291;DHT22;11814;44.686;10.842;2023-08-12T14:26:09;33.20;59.40
23291;DHT22;11814;44.686;10.842;2023-08-12T14:28:34;33.20;59.10
23291;DHT22;11814;44.686;10.842;2023-08-12T14:31:00;33.20;59.10
23291;DHT22;11814;44.686;10.842;2023-08-12T14:33:25;33.20;58.90
23291;DHT22;11814;44.686;10.842;2023-08-12T14:35:51;33.20;58.80
23291;DHT22;11814;44.686;10.842;2023-08-12T14:38:19;33.30;58.70
23291;DHT22;11814;44.686;10.842;2023-08-12T14:40:48;33.40;58.50
23291;DHT22;11814;44.686;10.842;2023-08-12T14:43:14;33.30;58.70
23291;DHT22;11814;44.686;10.842;2023-08-12T14:45:39;33.40;58.80
23291;DHT22;11814;44.686;10.842;2023-08-12T14:48:05;33.40;59.40
23291;DHT22;11814;44.686;10.842;2023-08-12T14:50:31;33.40;58.70
23291;DHT22;11814;44.686;10.842;2023-08-12T14:52:57;33.40;58.60
23291;DHT22;11814;44.686;10.842;2023-08-12T14:55:22;33.50;58.70
23291;DHT22;11814;44.686;10.842;2023-08-12T14:57:48;33.50;58.60
23291;DHT22;11814;44.686;10.842;2023-08-12T15:00:14;33.50;58.50
23291;DHT22;11814;44.686;10.842;2023-08-12T15:02:40;33.50;58.40
23291;DHT22;11814;44.686;10.842;2023-08-12T15:05:06;33.50;58.30
23291;DHT22;11814;44.686;10.842;2023-08-12T15:07:32;33.50;58.50
23291;DHT22;11814;44.686;10.842;2023-08-12T15:09:58;33.50;58.80
23291;DHT22;11814;44.686;10.842;2023-08-12T15:12:24;33.60;58.50
23291;DHT22;11814;44.686;10.842;2023-08-12T15:14:50;33.50;58.20
23291;DHT22;11814;44.686;10.842;2023-08-12T15:17:16;33.30;58.30
23291;DHT22;11814;44.686;10.842;2023-08-12T15:19:42;33.50;58.60
23291;DHT22;11814;44.686;10.842;2023-08-12T15:22:07;33.60;58.90
23291;DHT22;11814;44.686;10.842;2023-08-12T15:24:33;33.70;58.90